Hayward Executive, CA

10:30 AM PDT on October 23, 2014 (GMT -0700)
San Francisco International | Change Station
CLOSE
Current Station
Airport
Location: San Francisco,
Elevation: 16 ft
Nearby Weather Stations

Elev 16 ft 37.62 °N, 122.37 °W | Updated 34 minutes ago

Partly Cloudy
Partly Cloudy
68 °F
Feels Like 68 °F
N
4
Wind Variable Wind from ENE

Today
High -- | Low -- °F
--% Chance of Precip.
Yesterday
High -- | Low -- °F
Precip. -- in
7:24 AM 6:20 PM
Waning Crescent, 0% visible
Pressure 30.08 in
Visibility 10.0 miles
Clouds Few 1000 ft
Mostly Cloudy 18000 ft
Dew Point 60 °F
Humidity 76%
Rainfall 0.00 in
Snow Depth Not available.
UV 1 out of 12
Pollen 1.70 out of 12
Ozone Good
PM2.5 Good
Flu Activity Sporadic
METAR KSFO 231656Z 07003KT 10SM FEW010 BKN180 20/16 A3007 RMK AO2 SLP184 T02000156

More Conditions Fewer Conditions

Pressure 30.08 in
Visibility 10.0 miles
Clouds Few 1000 ft
Mostly Cloudy 18000 ft
Dew Point 60 °F
Humidity 76%
Rainfall 0.00 in
Snow Depth Not available.
UV 1 out of 12
Pollen 1.70 out of 12
Ozone Good
PM2.5 Good
Flu Activity Sporadic
METAR KSFO 231656Z 07003KT 10SM FEW010 BKN180 20/16 A3007 RMK AO2 SLP184 T02000156

More Conditions Fewer Conditions

10-Day Weather Forecast

Almanac

Astronomy

Oct. 23, 2014 Rise Set
Actual Time 7:24 AM PDT 6:20 PM PDT
Civil Twilight 6:57 AM PDT 6:47 PM PDT
Nautical Twilight 6:27 AM PDT 7:17 PM PDT
Astronomical Twilight 5:56 AM PDT 7:48 PM PDT
Moon 7:09 AM PDT 6:25 PM PDT
Length of Visible Light 11h 49m
Length of Day
10h 55m
Tomorrow will be 2m 15s shorter.
Waning Crescent, 0% of the Moon is Illuminated
Today
Waning Crescent
Oct 23
New
Oct 30
First Quarter
Nov 6
Full
Nov 14
Last Quarter

Today's Extremes

State Highs State Lows

Community

WunderPhotos

Upload Photos

1,764,321 photos uploaded!

WunderBlogs® & News

Nearby

Air Quality

  Air Quality AQ Index Pollutant
Yesterday Good
OZONE
Yesterday Good
PM2.5
Current Good
OZONE
Current Good
PM2.5
Thursday Good
OZONE
Friday Good
OZONE
Saturday Good
OZONE
Sunday Good
OZONE
Monday Good
PM2.5
Tuesday Good
PM2.5

Snow Depth

Station Depth Elevation
Forestdale Creek 0 in 8029 ft
Echo Peak 0 in 7800 ft
Rubicon #2 1 in 7500 ft
Fallen Leaf 0 in 6300 ft
Leavitt Lake 1 in 9400 ft

Earthquake Activity

City Distance Mag. Time & Date
No recent earthquake activity has been reported nearby.
Minimum magnitude displayed is 2.5.

Coastal Water Temperatures

Place Temperature
No Stations Reporting

Nearby Weather Stations